sensor_id;sensor_type;location;lat;lon;timestamp;P1;durP1;ratioP1;P2;durP2;ratioP2
2996;SDS011;1508;48.744;9.110;2023-02-15T00:02:06;97.43;;;60.20;;
2996;SDS011;1508;48.744;9.110;2023-02-15T00:04:52;103.13;;;62.78;;
2996;SDS011;1508;48.744;9.110;2023-02-15T00:07:38;97.68;;;65.15;;
2996;SDS011;1508;48.744;9.110;2023-02-15T00:10:24;106.45;;;65.15;;
2996;SDS011;1508;48.744;9.110;2023-02-15T00:13:09;103.00;;;65.50;;
2996;SDS011;1508;48.744;9.110;2023-02-15T00:15:59;105.15;;;73.30;;
2996;SDS011;1508;48.744;9.110;2023-02-15T00:18:46;102.30;;;66.63;;
2996;SDS011;1508;48.744;9.110;2023-02-15T00:21:32;101.25;;;66.53;;
2996;SDS011;1508;48.744;9.110;2023-02-15T00:24:19;105.03;;;68.97;;
2996;SDS011;1508;48.744;9.110;2023-02-15T00:27:05;99.15;;;56.33;;
2996;SDS011;1508;48.744;9.110;2023-02-15T00:29:51;105.75;;;67.82;;
2996;SDS011;1508;48.744;9.110;2023-02-15T00:32:37;109.55;;;63.63;;
2996;SDS011;1508;48.744;9.110;2023-02-15T00:35:23;106.25;;;56.42;;
2996;SDS011;1508;48.744;9.110;2023-02-15T00:38:09;107.25;;;59.58;;
2996;SDS011;1508;48.744;9.110;2023-02-15T00:40:55;104.10;;;58.57;;
2996;SDS011;1508;48.744;9.110;2023-02-15T00:43:42;109.70;;;63.65;;
2996;SDS011;1508;48.744;9.110;2023-02-15T00:46:28;99.85;;;54.25;;
2996;SDS011;1508;48.744;9.110;2023-02-15T00:49:15;97.45;;;50.42;;
2996;SDS011;1508;48.744;9.110;2023-02-15T00:52:00;98.32;;;58.08;;
2996;SDS011;1508;48.744;9.110;2023-02-15T00:54:46;106.43;;;56.00;;
2996;SDS011;1508;48.744;9.110;2023-02-15T00:57:32;98.03;;;53.22;;
2996;SDS011;1508;48.744;9.110;2023-02-15T01:00:18;106.22;;;55.90;;
2996;SDS011;1508;48.744;9.110;2023-02-15T01:03:04;98.32;;;54.72;;
2996;SDS011;1508;48.744;9.110;2023-02-15T01:05:50;104.40;;;58.35;;
2996;SDS011;1508;48.744;9.110;2023-02-15T01:08:36;106.97;;;61.30;;
2996;SDS011;1508;48.744;9.110;2023-02-15T01:11:22;102.47;;;58.15;;
2996;SDS011;1508;48.744;9.110;2023-02-15T01:14:08;99.73;;;50.40;;
2996;SDS011;1508;48.744;9.110;2023-02-15T01:16:54;103.72;;;55.58;;
2996;SDS011;1508;48.744;9.110;2023-02-15T01:19:40;101.90;;;52.58;;
2996;SDS011;1508;48.744;9.110;2023-02-15T01:22:25;101.78;;;51.45;;
2996;SDS011;1508;48.744;9.110;2023-02-15T01:25:11;99.90;;;52.53;;
2996;SDS011;1508;48.744;9.110;2023-02-15T01:27:57;101.57;;;52.17;;
2996;SDS011;1508;48.744;9.110;2023-02-15T01:30:43;96.20;;;52.22;;
2996;SDS011;1508;48.744;9.110;2023-02-15T01:33:29;103.97;;;53.80;;
2996;SDS011;1508;48.744;9.110;2023-02-15T01:36:15;100.53;;;52.33;;
2996;SDS011;1508;48.744;9.110;2023-02-15T01:39:01;105.53;;;52.33;;
2996;SDS011;1508;48.744;9.110;2023-02-15T01:41:47;101.80;;;50.95;;
2996;SDS011;1508;48.744;9.110;2023-02-15T01:50:41;96.93;;;48.47;;
2996;SDS011;1508;48.744;9.110;2023-02-15T01:53:32;96.75;;;48.55;;
2996;SDS011;1508;48.744;9.110;2023-02-15T01:56:23;96.90;;;48.72;;
2996;SDS011;1508;48.744;9.110;2023-02-15T01:59:14;99.32;;;51.92;;
2996;SDS011;1508;48.744;9.110;2023-02-15T02:02:04;110.65;;;60.03;;
2996;SDS011;1508;48.744;9.110;2023-02-15T02:04:54;101.60;;;56.75;;
2996;SDS011;1508;48.744;9.110;2023-02-15T02:07:46;96.38;;;53.05;;
2996;SDS011;1508;48.744;9.110;2023-02-15T02:10:35;99.28;;;50.17;;
2996;SDS011;1508;48.744;9.110;2023-02-15T02:13:21;102.55;;;51.47;;
2996;SDS011;1508;48.744;9.110;2023-02-15T02:27:59;105.35;;;53.40;;
2996;SDS011;1508;48.744;9.110;2023-02-15T02:34:17;105.45;;;50.55;;
2996;SDS011;1508;48.744;9.110;2023-02-15T02:37:20;107.13;;;58.60;;
2996;SDS011;1508;48.744;9.110;2023-02-15T02:43:11;102.07;;;60.27;;
2996;SDS011;1508;48.744;9.110;2023-02-15T02:46:30;101.50;;;50.20;;
2996;SDS011;1508;48.744;9.110;2023-02-15T02:49:37;105.00;;;52.17;;
2996;SDS011;1508;48.744;9.110;2023-02-15T02:55:23;97.47;;;53.07;;
2996;SDS011;1508;48.744;9.110;2023-02-15T02:58:14;111.18;;;62.00;;
2996;SDS011;1508;48.744;9.110;2023-02-15T03:01:27;102.10;;;58.85;;
2996;SDS011;1508;48.744;9.110;2023-02-15T03:04:24;101.35;;;56.97;;
2996;SDS011;1508;48.744;9.110;2023-02-15T03:07:18;103.40;;;57.30;;
2996;SDS011;1508;48.744;9.110;2023-02-15T03:10:07;107.55;;;58.60;;
2996;SDS011;1508;48.744;9.110;2023-02-15T03:12:54;111.95;;;56.70;;
2996;SDS011;1508;48.744;9.110;2023-02-15T03:15:40;101.35;;;54.47;;
2996;SDS011;1508;48.744;9.110;2023-02-15T03:18:30;103.80;;;56.55;;
2996;SDS011;1508;48.744;9.110;2023-02-15T03:21:29;114.37;;;60.23;;
2996;SDS011;1508;48.744;9.110;2023-02-15T03:24:24;107.70;;;67.35;;
2996;SDS011;1508;48.744;9.110;2023-02-15T03:27:16;106.30;;;51.70;;
2996;SDS011;1508;48.744;9.110;2023-02-15T03:30:06;107.90;;;67.13;;
2996;SDS011;1508;48.744;9.110;2023-02-15T03:32:54;115.47;;;66.45;;
2996;SDS011;1508;48.744;9.110;2023-02-15T03:35:44;110.30;;;57.50;;
2996;SDS011;1508;48.744;9.110;2023-02-15T03:38:50;106.90;;;57.00;;
2996;SDS011;1508;48.744;9.110;2023-02-15T03:42:33;106.18;;;54.33;;
2996;SDS011;1508;48.744;9.110;2023-02-15T03:44:59;112.60;;;60.87;;
2996;SDS011;1508;48.744;9.110;2023-02-15T03:47:53;119.45;;;56.45;;
2996;SDS011;1508;48.744;9.110;2023-02-15T03:50:43;114.38;;;76.30;;
2996;SDS011;1508;48.744;9.110;2023-02-15T03:53:29;114.95;;;63.53;;
2996;SDS011;1508;48.744;9.110;2023-02-15T03:56:15;108.20;;;59.05;;
2996;SDS011;1508;48.744;9.110;2023-02-15T03:59:01;114.13;;;56.05;;
2996;SDS011;1508;48.744;9.110;2023-02-15T04:04:43;111.55;;;53.33;;
2996;SDS011;1508;48.744;9.110;2023-02-15T04:07:31;111.80;;;56.10;;
2996;SDS011;1508;48.744;9.110;2023-02-15T04:10:17;109.47;;;53.90;;
2996;SDS011;1508;48.744;9.110;2023-02-15T04:13:03;108.18;;;55.42;;
2996;SDS011;1508;48.744;9.110;2023-02-15T04:15:49;106.07;;;54.55;;
2996;SDS011;1508;48.744;9.110;2023-02-15T04:18:36;111.35;;;55.00;;
2996;SDS011;1508;48.744;9.110;2023-02-15T04:21:27;122.55;;;59.30;;
2996;SDS011;1508;48.744;9.110;2023-02-15T04:24:15;117.65;;;56.40;;
2996;SDS011;1508;48.744;9.110;2023-02-15T04:27:01;125.95;;;59.85;;
2996;SDS011;1508;48.744;9.110;2023-02-15T04:29:48;121.90;;;56.83;;
2996;SDS011;1508;48.744;9.110;2023-02-15T04:32:34;118.95;;;56.28;;
2996;SDS011;1508;48.744;9.110;2023-02-15T04:35:20;116.75;;;57.15;;
2996;SDS011;1508;48.744;9.110;2023-02-15T04:38:06;115.55;;;58.85;;
2996;SDS011;1508;48.744;9.110;2023-02-15T04:40:52;114.63;;;56.97;;
2996;SDS011;1508;48.744;9.110;2023-02-15T04:43:38;117.55;;;53.80;;
2996;SDS011;1508;48.744;9.110;2023-02-15T04:46:24;108.53;;;56.47;;
2996;SDS011;1508;48.744;9.110;2023-02-15T04:49:10;114.75;;;56.75;;
2996;SDS011;1508;48.744;9.110;2023-02-15T04:51:56;120.65;;;60.00;;
2996;SDS011;1508;48.744;9.110;2023-02-15T04:54:42;113.90;;;59.80;;
2996;SDS011;1508;48.744;9.110;2023-02-15T04:57:28;115.93;;;57.40;;
2996;SDS011;1508;48.744;9.110;2023-02-15T05:00:14;115.82;;;57.75;;
2996;SDS011;1508;48.744;9.110;2023-02-15T05:03:00;102.95;;;54.85;;
2996;SDS011;1508;48.744;9.110;2023-02-15T05:05:46;109.47;;;50.75;;
2996;SDS011;1508;48.744;9.110;2023-02-15T05:08:32;98.70;;;54.00;;
2996;SDS011;1508;48.744;9.110;2023-02-15T05:11:21;94.07;;;58.55;;
2996;SDS011;1508;48.744;9.110;2023-02-15T05:14:07;94.43;;;50.95;;
2996;SDS011;1508;48.744;9.110;2023-02-15T05:16:53;108.45;;;54.65;;
2996;SDS011;1508;48.744;9.110;2023-02-15T05:19:38;117.35;;;80.85;;
2996;SDS011;1508;48.744;9.110;2023-02-15T05:22:24;117.25;;;73.68;;
2996;SDS011;1508;48.744;9.110;2023-02-15T05:25:10;116.97;;;54.10;;
2996;SDS011;1508;48.744;9.110;2023-02-15T05:27:56;106.35;;;49.42;;
2996;SDS011;1508;48.744;9.110;2023-02-15T05:30:42;110.55;;;57.80;;
2996;SDS011;1508;48.744;9.110;2023-02-15T05:33:28;113.22;;;66.30;;
2996;SDS011;1508;48.744;9.110;2023-02-15T05:36:13;107.07;;;49.00;;
2996;SDS011;1508;48.744;9.110;2023-02-15T05:38:59;92.53;;;49.88;;
2996;SDS011;1508;48.744;9.110;2023-02-15T05:41:45;104.18;;;47.85;;
2996;SDS011;1508;48.744;9.110;2023-02-15T05:44:31;105.15;;;55.90;;
2996;SDS011;1508;48.744;9.110;2023-02-15T05:47:17;106.85;;;56.03;;
2996;SDS011;1508;48.744;9.110;2023-02-15T05:50:03;109.65;;;59.85;;
2996;SDS011;1508;48.744;9.110;2023-02-15T05:52:49;115.88;;;54.70;;
2996;SDS011;1508;48.744;9.110;2023-02-15T05:55:37;118.77;;;77.37;;
2996;SDS011;1508;48.744;9.110;2023-02-15T05:58:24;109.18;;;54.85;;
2996;SDS011;1508;48.744;9.110;2023-02-15T06:01:15;92.70;;;61.05;;
2996;SDS011;1508;48.744;9.110;2023-02-15T06:04:02;101.70;;;45.97;;
2996;SDS011;1508;48.744;9.110;2023-02-15T06:06:50;98.53;;;46.33;;
2996;SDS011;1508;48.744;9.110;2023-02-15T06:09:36;98.93;;;45.72;;
2996;SDS011;1508;48.744;9.110;2023-02-15T06:12:22;105.22;;;45.97;;
2996;SDS011;1508;48.744;9.110;2023-02-15T06:15:08;97.07;;;43.53;;
2996;SDS011;1508;48.744;9.110;2023-02-15T06:17:54;100.85;;;47.53;;
2996;SDS011;1508;48.744;9.110;2023-02-15T06:20:39;108.95;;;46.88;;
2996;SDS011;1508;48.744;9.110;2023-02-15T06:23:25;90.75;;;44.10;;
2996;SDS011;1508;48.744;9.110;2023-02-15T06:26:11;98.60;;;41.55;;
2996;SDS011;1508;48.744;9.110;2023-02-15T06:28:57;87.55;;;43.53;;
2996;SDS011;1508;48.744;9.110;2023-02-15T06:31:43;87.23;;;47.43;;
2996;SDS011;1508;48.744;9.110;2023-02-15T06:34:29;89.55;;;49.13;;
2996;SDS011;1508;48.744;9.110;2023-02-15T06:37:16;87.70;;;46.22;;
2996;SDS011;1508;48.744;9.110;2023-02-15T06:40:02;93.93;;;46.65;;
2996;SDS011;1508;48.744;9.110;2023-02-15T06:42:48;117.65;;;61.47;;
2996;SDS011;1508;48.744;9.110;2023-02-15T06:45:34;111.38;;;61.88;;
2996;SDS011;1508;48.744;9.110;2023-02-15T06:48:20;99.15;;;48.75;;
2996;SDS011;1508;48.744;9.110;2023-02-15T06:51:06;103.07;;;45.22;;
2996;SDS011;1508;48.744;9.110;2023-02-15T06:53:52;105.38;;;48.47;;
2996;SDS011;1508;48.744;9.110;2023-02-15T06:56:38;108.60;;;57.83;;
2996;SDS011;1508;48.744;9.110;2023-02-15T06:59:23;104.10;;;48.10;;
2996;SDS011;1508;48.744;9.110;2023-02-15T07:02:12;93.43;;;50.42;;
2996;SDS011;1508;48.744;9.110;2023-02-15T07:04:59;103.75;;;53.70;;
2996;SDS011;1508;48.744;9.110;2023-02-15T07:07:45;99.95;;;48.85;;
2996;SDS011;1508;48.744;9.110;2023-02-15T07:10:30;103.32;;;60.85;;
2996;SDS011;1508;48.744;9.110;2023-02-15T07:13:16;99.65;;;58.53;;
2996;SDS011;1508;48.744;9.110;2023-02-15T07:16:02;97.82;;;49.08;;
2996;SDS011;1508;48.744;9.110;2023-02-15T07:18:48;91.10;;;43.42;;
2996;SDS011;1508;48.744;9.110;2023-02-15T07:21:34;93.30;;;45.28;;
2996;SDS011;1508;48.744;9.110;2023-02-15T07:24:20;93.95;;;43.20;;
2996;SDS011;1508;48.744;9.110;2023-02-15T07:27:07;92.53;;;45.97;;
2996;SDS011;1508;48.744;9.110;2023-02-15T07:29:53;85.47;;;43.17;;
2996;SDS011;1508;48.744;9.110;2023-02-15T07:32:38;86.15;;;46.40;;
2996;SDS011;1508;48.744;9.110;2023-02-15T07:35:24;89.97;;;42.40;;
2996;SDS011;1508;48.744;9.110;2023-02-15T07:38:10;76.47;;;38.17;;
2996;SDS011;1508;48.744;9.110;2023-02-15T07:41:00;85.43;;;42.72;;
2996;SDS011;1508;48.744;9.110;2023-02-15T07:43:46;83.97;;;43.55;;
2996;SDS011;1508;48.744;9.110;2023-02-15T07:46:32;89.88;;;45.38;;
2996;SDS011;1508;48.744;9.110;2023-02-15T07:49:18;82.43;;;44.03;;
2996;SDS011;1508;48.744;9.110;2023-02-15T07:52:04;86.57;;;52.72;;
2996;SDS011;1508;48.744;9.110;2023-02-15T07:54:50;81.70;;;42.13;;
2996;SDS011;1508;48.744;9.110;2023-02-15T07:57:35;83.35;;;45.80;;
2996;SDS011;1508;48.744;9.110;2023-02-15T08:00:21;85.97;;;49.75;;
2996;SDS011;1508;48.744;9.110;2023-02-15T08:03:07;74.85;;;44.17;;
2996;SDS011;1508;48.744;9.110;2023-02-15T08:05:57;81.80;;;45.95;;
2996;SDS011;1508;48.744;9.110;2023-02-15T08:08:44;80.38;;;51.38;;
2996;SDS011;1508;48.744;9.110;2023-02-15T08:11:31;87.63;;;48.33;;
2996;SDS011;1508;48.744;9.110;2023-02-15T08:14:20;77.28;;;43.75;;
2996;SDS011;1508;48.744;9.110;2023-02-15T08:17:06;85.63;;;46.60;;
2996;SDS011;1508;48.744;9.110;2023-02-15T08:19:52;79.70;;;45.80;;
2996;SDS011;1508;48.744;9.110;2023-02-15T08:22:38;84.30;;;47.28;;
2996;SDS011;1508;48.744;9.110;2023-02-15T08:25:24;80.47;;;44.92;;
2996;SDS011;1508;48.744;9.110;2023-02-15T08:28:10;74.27;;;40.73;;
2996;SDS011;1508;48.744;9.110;2023-02-15T08:30:55;78.00;;;41.10;;
2996;SDS011;1508;48.744;9.110;2023-02-15T08:33:49;78.63;;;42.30;;
2996;SDS011;1508;48.744;9.110;2023-02-15T08:36:37;80.07;;;40.25;;
2996;SDS011;1508;48.744;9.110;2023-02-15T08:39:23;80.25;;;50.67;;
2996;SDS011;1508;48.744;9.110;2023-02-15T08:42:09;74.50;;;42.08;;
2996;SDS011;1508;48.744;9.110;2023-02-15T08:44:54;88.97;;;71.72;;
2996;SDS011;1508;48.744;9.110;2023-02-15T08:47:40;76.85;;;46.70;;
2996;SDS011;1508;48.744;9.110;2023-02-15T08:50:26;78.57;;;50.87;;
2996;SDS011;1508;48.744;9.110;2023-02-15T08:53:12;81.60;;;52.28;;
2996;SDS011;1508;48.744;9.110;2023-02-15T08:55:58;77.38;;;46.53;;
2996;SDS011;1508;48.744;9.110;2023-02-15T08:58:44;83.07;;;56.70;;
2996;SDS011;1508;48.744;9.110;2023-02-15T09:01:31;78.10;;;52.33;;
2996;SDS011;1508;48.744;9.110;2023-02-15T09:04:18;75.57;;;46.28;;
2996;SDS011;1508;48.744;9.110;2023-02-15T09:07:05;79.05;;;51.30;;
2996;SDS011;1508;48.744;9.110;2023-02-15T09:09:50;78.80;;;52.75;;
2996;SDS011;1508;48.744;9.110;2023-02-15T09:12:36;75.43;;;48.22;;
2996;SDS011;1508;48.744;9.110;2023-02-15T09:15:22;79.25;;;55.83;;
2996;SDS011;1508;48.744;9.110;2023-02-15T09:18:08;72.40;;;48.13;;
2996;SDS011;1508;48.744;9.110;2023-02-15T09:20:54;73.65;;;45.22;;
2996;SDS011;1508;48.744;9.110;2023-02-15T09:23:40;74.95;;;48.70;;
2996;SDS011;1508;48.744;9.110;2023-02-15T09:26:28;76.73;;;49.60;;
2996;SDS011;1508;48.744;9.110;2023-02-15T09:29:15;74.53;;;49.35;;
2996;SDS011;1508;48.744;9.110;2023-02-15T09:32:02;100.70;;;89.32;;
2996;SDS011;1508;48.744;9.110;2023-02-15T09:34:48;76.70;;;44.72;;
2996;SDS011;1508;48.744;9.110;2023-02-15T09:37:33;71.97;;;40.42;;
2996;SDS011;1508;48.744;9.110;2023-02-15T09:40:19;75.75;;;45.15;;
2996;SDS011;1508;48.744;9.110;2023-02-15T09:43:08;74.57;;;44.97;;
2996;SDS011;1508;48.744;9.110;2023-02-15T09:46:04;73.77;;;43.57;;
2996;SDS011;1508;48.744;9.110;2023-02-15T09:48:56;93.65;;;69.05;;
2996;SDS011;1508;48.744;9.110;2023-02-15T09:52:13;78.75;;;45.97;;
2996;SDS011;1508;48.744;9.110;2023-02-15T10:01:40;317.93;;;297.23;;
2996;SDS011;1508;48.744;9.110;2023-02-15T10:08:07;162.05;;;148.80;;
2996;SDS011;1508;48.744;9.110;2023-02-15T10:14:02;199.38;;;182.93;;
2996;SDS011;1508;48.744;9.110;2023-02-15T10:23:31;352.97;;;327.67;;
2996;SDS011;1508;48.744;9.110;2023-02-15T10:26:44;323.45;;;301.63;;
2996;SDS011;1508;48.744;9.110;2023-02-15T10:29:38;363.90;;;337.00;;
2996;SDS011;1508;48.744;9.110;2023-02-15T10:32:29;258.30;;;237.90;;
2996;SDS011;1508;48.744;9.110;2023-02-15T10:41:42;485.20;;;450.17;;
2996;SDS011;1508;48.744;9.110;2023-02-15T10:48:59;373.30;;;348.58;;
2996;SDS011;1508;48.744;9.110;2023-02-15T10:57:45;302.10;;;282.57;;
2996;SDS011;1508;48.744;9.110;2023-02-15T11:03:52;334.73;;;313.77;;
2996;SDS011;1508;48.744;9.110;2023-02-15T11:07:59;305.45;;;285.27;;
2996;SDS011;1508;48.744;9.110;2023-02-15T11:10:32;407.15;;;381.10;;
2996;SDS011;1508;48.744;9.110;2023-02-15T11:13:36;262.80;;;244.05;;
2996;SDS011;1508;48.744;9.110;2023-02-15T11:16:36;423.15;;;395.10;;
2996;SDS011;1508;48.744;9.110;2023-02-15T11:19:30;338.92;;;314.90;;
2996;SDS011;1508;48.744;9.110;2023-02-15T11:22:19;306.37;;;285.03;;
2996;SDS011;1508;48.744;9.110;2023-02-15T11:25:14;252.50;;;233.23;;
2996;SDS011;1508;48.744;9.110;2023-02-15T11:28:10;258.65;;;239.65;;
2996;SDS011;1508;48.744;9.110;2023-02-15T11:31:12;219.43;;;203.95;;
2996;SDS011;1508;48.744;9.110;2023-02-15T11:34:11;208.35;;;193.32;;
2996;SDS011;1508;48.744;9.110;2023-02-15T11:37:12;273.55;;;253.00;;
2996;SDS011;1508;48.744;9.110;2023-02-15T11:40:02;347.02;;;321.85;;
2996;SDS011;1508;48.744;9.110;2023-02-15T11:43:06;374.27;;;342.85;;
2996;SDS011;1508;48.744;9.110;2023-02-15T11:46:00;161.27;;;147.75;;
2996;SDS011;1508;48.744;9.110;2023-02-15T11:48:46;296.20;;;272.63;;
2996;SDS011;1508;48.744;9.110;2023-02-15T11:51:33;245.52;;;227.45;;
2996;SDS011;1508;48.744;9.110;2023-02-15T11:54:21;374.30;;;345.80;;
2996;SDS011;1508;48.744;9.110;2023-02-15T12:03:00;188.15;;;173.27;;
2996;SDS011;1508;48.744;9.110;2023-02-15T12:05:53;283.35;;;259.98;;
2996;SDS011;1508;48.744;9.110;2023-02-15T12:08:48;354.02;;;327.30;;
2996;SDS011;1508;48.744;9.110;2023-02-15T12:11:40;531.10;;;487.17;;
2996;SDS011;1508;48.744;9.110;2023-02-15T12:14:26;344.92;;;320.50;;
2996;SDS011;1508;48.744;9.110;2023-02-15T12:17:33;316.13;;;293.90;;
2996;SDS011;1508;48.744;9.110;2023-02-15T12:20:33;375.05;;;348.35;;
2996;SDS011;1508;48.744;9.110;2023-02-15T12:23:21;379.58;;;352.27;;
2996;SDS011;1508;48.744;9.110;2023-02-15T12:26:07;382.00;;;354.92;;
2996;SDS011;1508;48.744;9.110;2023-02-15T12:28:54;366.52;;;339.60;;
2996;SDS011;1508;48.744;9.110;2023-02-15T12:31:47;416.05;;;387.67;;
2996;SDS011;1508;48.744;9.110;2023-02-15T12:34:37;345.17;;;321.40;;
2996;SDS011;1508;48.744;9.110;2023-02-15T12:37:25;284.50;;;264.75;;
2996;SDS011;1508;48.744;9.110;2023-02-15T12:40:20;330.90;;;307.45;;
2996;SDS011;1508;48.744;9.110;2023-02-15T12:43:27;361.13;;;333.42;;
2996;SDS011;1508;48.744;9.110;2023-02-15T12:46:25;342.92;;;317.67;;
2996;SDS011;1508;48.744;9.110;2023-02-15T12:49:18;299.38;;;278.65;;
2996;SDS011;1508;48.744;9.110;2023-02-15T12:52:06;372.02;;;345.83;;
2996;SDS011;1508;48.744;9.110;2023-02-15T12:55:11;258.77;;;239.40;;
2996;SDS011;1508;48.744;9.110;2023-02-15T12:58:17;483.92;;;442.73;;
2996;SDS011;1508;48.744;9.110;2023-02-15T13:01:22;355.00;;;330.55;;
2996;SDS011;1508;48.744;9.110;2023-02-15T13:07:10;340.17;;;316.48;;
2996;SDS011;1508;48.744;9.110;2023-02-15T13:09:58;322.25;;;300.83;;
2996;SDS011;1508;48.744;9.110;2023-02-15T13:12:45;361.43;;;336.00;;
2996;SDS011;1508;48.744;9.110;2023-02-15T13:15:41;205.85;;;189.98;;
2996;SDS011;1508;48.744;9.110;2023-02-15T13:18:32;325.17;;;303.75;;
2996;SDS011;1508;48.744;9.110;2023-02-15T13:21:23;451.48;;;418.17;;
2996;SDS011;1508;48.744;9.110;2023-02-15T13:24:17;310.95;;;289.83;;
2996;SDS011;1508;48.744;9.110;2023-02-15T13:27:03;266.23;;;247.85;;
2996;SDS011;1508;48.744;9.110;2023-02-15T13:29:51;251.93;;;234.73;;
2996;SDS011;1508;48.744;9.110;2023-02-15T13:32:39;305.90;;;286.13;;
2996;SDS011;1508;48.744;9.110;2023-02-15T13:35:27;227.45;;;210.80;;
2996;SDS011;1508;48.744;9.110;2023-02-15T13:41:42;288.33;;;268.58;;
2996;SDS011;1508;48.744;9.110;2023-02-15T13:51:13;341.40;;;318.20;;
2996;SDS011;1508;48.744;9.110;2023-02-15T13:54:27;366.23;;;340.63;;
2996;SDS011;1508;48.744;9.110;2023-02-15T14:00:47;260.17;;;241.63;;
2996;SDS011;1508;48.744;9.110;2023-02-15T14:03:52;260.52;;;241.90;;
2996;SDS011;1508;48.744;9.110;2023-02-15T14:09:56;339.52;;;316.00;;
2996;SDS011;1508;48.744;9.110;2023-02-15T14:13:38;269.92;;;251.07;;
2996;SDS011;1508;48.744;9.110;2023-02-15T14:19:54;393.13;;;359.75;;
2996;SDS011;1508;48.744;9.110;2023-02-15T14:22:48;235.38;;;217.73;;
2996;SDS011;1508;48.744;9.110;2023-02-15T14:25:50;263.45;;;243.98;;
2996;SDS011;1508;48.744;9.110;2023-02-15T14:29:00;338.02;;;314.65;;
2996;SDS011;1508;48.744;9.110;2023-02-15T14:31:53;364.27;;;335.35;;
2996;SDS011;1508;48.744;9.110;2023-02-15T14:40:36;261.50;;;244.13;;
2996;SDS011;1508;48.744;9.110;2023-02-15T14:46:38;134.60;;;121.85;;
2996;SDS011;1508;48.744;9.110;2023-02-15T14:49:48;98.95;;;88.95;;
2996;SDS011;1508;48.744;9.110;2023-02-15T14:52:36;113.55;;;103.15;;
2996;SDS011;1508;48.744;9.110;2023-02-15T14:56:21;136.60;;;124.05;;
2996;SDS011;1508;48.744;9.110;2023-02-15T14:59:12;142.15;;;129.65;;
2996;SDS011;1508;48.744;9.110;2023-02-15T15:07:44;171.38;;;156.77;;
2996;SDS011;1508;48.744;9.110;2023-02-15T15:10:42;205.40;;;190.15;;
2996;SDS011;1508;48.744;9.110;2023-02-15T15:16:46;388.02;;;362.20;;
2996;SDS011;1508;48.744;9.110;2023-02-15T15:22:31;221.60;;;205.35;;
2996;SDS011;1508;48.744;9.110;2023-02-15T15:50:01;165.95;;;152.15;;
2996;SDS011;1508;48.744;9.110;2023-02-15T15:52:57;220.07;;;205.32;;
2996;SDS011;1508;48.744;9.110;2023-02-15T15:55:46;191.93;;;177.45;;
2996;SDS011;1508;48.744;9.110;2023-02-15T15:58:33;188.25;;;174.52;;
2996;SDS011;1508;48.744;9.110;2023-02-15T16:01:30;177.48;;;163.73;;
2996;SDS011;1508;48.744;9.110;2023-02-15T16:10:04;95.93;;;85.85;;
2996;SDS011;1508;48.744;9.110;2023-02-15T16:12:53;99.50;;;88.82;;
2996;SDS011;1508;48.744;9.110;2023-02-15T16:15:44;116.32;;;105.63;;
2996;SDS011;1508;48.744;9.110;2023-02-15T16:18:31;153.60;;;141.52;;
2996;SDS011;1508;48.744;9.110;2023-02-15T16:21:27;92.53;;;83.15;;
2996;SDS011;1508;48.744;9.110;2023-02-15T16:30:16;153.77;;;141.00;;
2996;SDS011;1508;48.744;9.110;2023-02-15T16:33:09;171.50;;;158.57;;
2996;SDS011;1508;48.744;9.110;2023-02-15T16:35:56;180.57;;;166.83;;
2996;SDS011;1508;48.744;9.110;2023-02-15T16:41:29;308.13;;;287.33;;
2996;SDS011;1508;48.744;9.110;2023-02-15T16:44:16;304.93;;;284.30;;
2996;SDS011;1508;48.744;9.110;2023-02-15T16:47:04;298.45;;;277.98;;
2996;SDS011;1508;48.744;9.110;2023-02-15T16:50:19;357.20;;;335.20;;
2996;SDS011;1508;48.744;9.110;2023-02-15T16:53:14;211.55;;;196.20;;
2996;SDS011;1508;48.744;9.110;2023-02-15T16:56:06;134.65;;;123.05;;
2996;SDS011;1508;48.744;9.110;2023-02-15T16:58:53;263.27;;;245.80;;
2996;SDS011;1508;48.744;9.110;2023-02-15T17:01:40;175.73;;;162.23;;
2996;SDS011;1508;48.744;9.110;2023-02-15T17:04:30;234.68;;;218.32;;
2996;SDS011;1508;48.744;9.110;2023-02-15T17:07:20;235.02;;;218.23;;
2996;SDS011;1508;48.744;9.110;2023-02-15T17:10:25;178.23;;;161.85;;
2996;SDS011;1508;48.744;9.110;2023-02-15T17:13:13;142.15;;;128.90;;
2996;SDS011;1508;48.744;9.110;2023-02-15T17:18:47;101.35;;;90.28;;
2996;SDS011;1508;48.744;9.110;2023-02-15T17:21:42;118.72;;;106.95;;
2996;SDS011;1508;48.744;9.110;2023-02-15T17:24:37;138.18;;;126.25;;
2996;SDS011;1508;48.744;9.110;2023-02-15T17:27:25;139.57;;;126.07;;
2996;SDS011;1508;48.744;9.110;2023-02-15T17:30:15;218.52;;;201.45;;
2996;SDS011;1508;48.744;9.110;2023-02-15T17:33:25;158.07;;;144.38;;
2996;SDS011;1508;48.744;9.110;2023-02-15T17:36:21;152.32;;;139.27;;
2996;SDS011;1508;48.744;9.110;2023-02-15T17:39:19;146.38;;;134.77;;
2996;SDS011;1508;48.744;9.110;2023-02-15T17:42:06;168.57;;;155.82;;
2996;SDS011;1508;48.744;9.110;2023-02-15T17:44:52;153.48;;;140.77;;
2996;SDS011;1508;48.744;9.110;2023-02-15T17:47:38;177.83;;;163.13;;
2996;SDS011;1508;48.744;9.110;2023-02-15T17:50:25;132.13;;;120.65;;
2996;SDS011;1508;48.744;9.110;2023-02-15T17:53:12;158.77;;;146.25;;
2996;SDS011;1508;48.744;9.110;2023-02-15T17:56:02;130.25;;;118.85;;
2996;SDS011;1508;48.744;9.110;2023-02-15T17:58:48;144.15;;;132.60;;
2996;SDS011;1508;48.744;9.110;2023-02-15T18:01:34;126.95;;;116.32;;
2996;SDS011;1508;48.744;9.110;2023-02-15T18:04:24;102.13;;;91.78;;
2996;SDS011;1508;48.744;9.110;2023-02-15T18:07:09;111.15;;;100.32;;
2996;SDS011;1508;48.744;9.110;2023-02-15T18:09:57;134.55;;;122.65;;
2996;SDS011;1508;48.744;9.110;2023-02-15T18:12:43;171.23;;;156.50;;
2996;SDS011;1508;48.744;9.110;2023-02-15T18:15:29;115.73;;;104.37;;
2996;SDS011;1508;48.744;9.110;2023-02-15T18:18:15;250.63;;;230.40;;
2996;SDS011;1508;48.744;9.110;2023-02-15T18:21:01;218.85;;;202.40;;
2996;SDS011;1508;48.744;9.110;2023-02-15T18:23:46;207.73;;;192.48;;
2996;SDS011;1508;48.744;9.110;2023-02-15T18:26:32;165.40;;;152.27;;
2996;SDS011;1508;48.744;9.110;2023-02-15T18:29:18;261.75;;;244.23;;
2996;SDS011;1508;48.744;9.110;2023-02-15T18:32:06;132.93;;;122.03;;
2996;SDS011;1508;48.744;9.110;2023-02-15T18:34:55;144.87;;;131.53;;
2996;SDS011;1508;48.744;9.110;2023-02-15T18:37:42;217.27;;;201.27;;
2996;SDS011;1508;48.744;9.110;2023-02-15T18:40:29;182.00;;;168.20;;
2996;SDS011;1508;48.744;9.110;2023-02-15T18:43:15;306.93;;;283.80;;
2996;SDS011;1508;48.744;9.110;2023-02-15T18:46:01;339.45;;;315.70;;
2996;SDS011;1508;48.744;9.110;2023-02-15T18:48:46;382.98;;;357.05;;
2996;SDS011;1508;48.744;9.110;2023-02-15T18:51:32;188.73;;;173.98;;
2996;SDS011;1508;48.744;9.110;2023-02-15T18:54:19;454.25;;;420.80;;
2996;SDS011;1508;48.744;9.110;2023-02-15T18:57:08;473.80;;;435.33;;
2996;SDS011;1508;48.744;9.110;2023-02-15T18:59:56;224.27;;;207.80;;
2996;SDS011;1508;48.744;9.110;2023-02-15T19:02:42;173.52;;;159.30;;
2996;SDS011;1508;48.744;9.110;2023-02-15T19:05:28;219.98;;;203.13;;
2996;SDS011;1508;48.744;9.110;2023-02-15T19:08:19;199.60;;;184.50;;
2996;SDS011;1508;48.744;9.110;2023-02-15T19:11:10;154.52;;;142.18;;
2996;SDS011;1508;48.744;9.110;2023-02-15T19:13:59;159.27;;;146.63;;
2996;SDS011;1508;48.744;9.110;2023-02-15T19:16:45;135.00;;;123.22;;
2996;SDS011;1508;48.744;9.110;2023-02-15T19:19:30;189.30;;;176.00;;
2996;SDS011;1508;48.744;9.110;2023-02-15T19:25:05;229.27;;;211.77;;
2996;SDS011;1508;48.744;9.110;2023-02-15T19:27:52;214.50;;;198.57;;
2996;SDS011;1508;48.744;9.110;2023-02-15T19:30:39;188.73;;;175.10;;
2996;SDS011;1508;48.744;9.110;2023-02-15T19:33:25;247.90;;;230.05;;